sensor_id;sensor_type;location;lat;lon;timestamp;temperature;humidity
13172;DHT22;6651;53.200;10.432;2023-08-01T00:00:39;17.10;99.90
13172;DHT22;6651;53.200;10.432;2023-08-01T00:03:05;17.10;99.90
13172;DHT22;6651;53.200;10.432;2023-08-01T00:05:31;17.10;99.90
13172;DHT22;6651;53.200;10.432;2023-08-01T00:07:56;17.20;99.90
13172;DHT22;6651;53.200;10.432;2023-08-01T00:10:22;17.20;99.90
13172;DHT22;6651;53.200;10.432;2023-08-01T00:12:47;17.10;99.90
13172;DHT22;6651;53.200;10.432;2023-08-01T00:15:13;17.10;99.90
13172;DHT22;6651;53.200;10.432;2023-08-01T00:17:39;17.10;99.90
13172;DHT22;6651;53.200;10.432;2023-08-01T00:20:05;17.10;99.90
13172;DHT22;6651;53.200;10.432;2023-08-01T00:22:31;17.10;99.90
13172;DHT22;6651;53.200;10.432;2023-08-01T00:24:57;17.10;99.90
13172;DHT22;6651;53.200;10.432;2023-08-01T00:27:23;17.10;99.90
13172;DHT22;6651;53.200;10.432;2023-08-01T00:29:49;17.10;99.90
13172;DHT22;6651;53.200;10.432;2023-08-01T00:32:15;17.10;99.90
13172;DHT22;6651;53.200;10.432;2023-08-01T00:34:41;17.10;99.90
13172;DHT22;6651;53.200;10.432;2023-08-01T00:37:06;17.10;99.90
13172;DHT22;6651;53.200;10.432;2023-08-01T00:39:32;17.00;99.90
13172;DHT22;6651;53.200;10.432;2023-08-01T00:41:58;17.10;99.90
13172;DHT22;6651;53.200;10.432;2023-08-01T00:44:24;17.10;99.90
13172;DHT22;6651;53.200;10.432;2023-08-01T00:46:50;17.00;99.90
13172;DHT22;6651;53.200;10.432;2023-08-01T00:49:15;17.00;99.90
13172;DHT22;6651;53.200;10.432;2023-08-01T00:51:42;17.00;99.90
13172;DHT22;6651;53.200;10.432;2023-08-01T00:54:08;17.00;99.90
13172;DHT22;6651;53.200;10.432;2023-08-01T00:56:34;17.00;99.90
13172;DHT22;6651;53.200;10.432;2023-08-01T00:59:00;17.00;99.90
13172;DHT22;6651;53.200;10.432;2023-08-01T01:01:26;17.10;99.90
13172;DHT22;6651;53.200;10.432;2023-08-01T01:03:52;17.10;99.90
13172;DHT22;6651;53.200;10.432;2023-08-01T01:06:25;17.00;99.90
13172;DHT22;6651;53.200;10.432;2023-08-01T01:08:51;17.00;99.90
13172;DHT22;6651;53.200;10.432;2023-08-01T01:11:19;17.00;99.90
13172;DHT22;6651;53.200;10.432;2023-08-01T01:13:44;17.00;99.90
13172;DHT22;6651;53.200;10.432;2023-08-01T01:16:10;17.00;99.90
13172;DHT22;6651;53.200;10.432;2023-08-01T01:18:35;16.90;99.90
13172;DHT22;6651;53.200;10.432;2023-08-01T01:21:01;17.00;99.90
13172;DHT22;6651;53.200;10.432;2023-08-01T01:23:27;16.90;99.90
13172;DHT22;6651;53.200;10.432;2023-08-01T01:25:54;16.90;99.90
13172;DHT22;6651;53.200;10.432;2023-08-01T01:28:22;16.90;99.90
13172;DHT22;6651;53.200;10.432;2023-08-01T01:30:48;16.90;99.90
13172;DHT22;6651;53.200;10.432;2023-08-01T01:33:14;17.00;99.90
13172;DHT22;6651;53.200;10.432;2023-08-01T01:35:41;17.00;99.90
13172;DHT22;6651;53.200;10.432;2023-08-01T01:38:07;17.00;99.90
13172;DHT22;6651;53.200;10.432;2023-08-01T01:40:33;16.90;99.90
13172;DHT22;6651;53.200;10.432;2023-08-01T01:43:00;17.00;99.90
13172;DHT22;6651;53.200;10.432;2023-08-01T01:45:26;17.00;99.90
13172;DHT22;6651;53.200;10.432;2023-08-01T01:47:52;16.90;99.90
13172;DHT22;6651;53.200;10.432;2023-08-01T01:50:18;16.90;99.90
13172;DHT22;6651;53.200;10.432;2023-08-01T01:52:44;17.00;99.90
13172;DHT22;6651;53.200;10.432;2023-08-01T01:55:10;16.90;99.90
13172;DHT22;6651;53.200;10.432;2023-08-01T01:57:36;16.90;99.90
13172;DHT22;6651;53.200;10.432;2023-08-01T02:00:05;16.90;99.90
13172;DHT22;6651;53.200;10.432;2023-08-01T02:02:31;16.90;99.90
13172;DHT22;6651;53.200;10.432;2023-08-01T02:04:57;16.90;99.90
13172;DHT22;6651;53.200;10.432;2023-08-01T02:07:23;16.90;99.90
13172;DHT22;6651;53.200;10.432;2023-08-01T02:09:48;16.90;99.90
13172;DHT22;6651;53.200;10.432;2023-08-01T02:12:14;16.90;99.90
13172;DHT22;6651;53.200;10.432;2023-08-01T02:14:40;16.80;99.90
13172;DHT22;6651;53.200;10.432;2023-08-01T02:17:06;16.90;99.90
13172;DHT22;6651;53.200;10.432;2023-08-01T02:19:33;16.80;99.90
13172;DHT22;6651;53.200;10.432;2023-08-01T02:21:59;16.80;99.90
13172;DHT22;6651;53.200;10.432;2023-08-01T02:24:24;16.90;99.90
13172;DHT22;6651;53.200;10.432;2023-08-01T02:26:50;16.90;99.90
13172;DHT22;6651;53.200;10.432;2023-08-01T02:29:16;16.90;99.90
13172;DHT22;6651;53.200;10.432;2023-08-01T02:31:42;16.90;99.90
13172;DHT22;6651;53.200;10.432;2023-08-01T02:34:09;16.80;99.90
13172;DHT22;6651;53.200;10.432;2023-08-01T02:36:35;16.80;99.90
13172;DHT22;6651;53.200;10.432;2023-08-01T02:39:00;16.80;99.90
13172;DHT22;6651;53.200;10.432;2023-08-01T02:41:26;16.80;99.90
13172;DHT22;6651;53.200;10.432;2023-08-01T02:43:52;16.90;99.90
13172;DHT22;6651;53.200;10.432;2023-08-01T02:46:17;16.80;99.90
13172;DHT22;6651;53.200;10.432;2023-08-01T02:48:43;16.80;99.90
13172;DHT22;6651;53.200;10.432;2023-08-01T02:51:09;16.70;99.90
13172;DHT22;6651;53.200;10.432;2023-08-01T02:53:35;16.70;99.90
13172;DHT22;6651;53.200;10.432;2023-08-01T02:56:01;16.70;99.90
13172;DHT22;6651;53.200;10.432;2023-08-01T02:58:28;16.80;99.90
13172;DHT22;6651;53.200;10.432;2023-08-01T03:00:54;16.70;99.90
13172;DHT22;6651;53.200;10.432;2023-08-01T03:03:19;16.70;99.90
13172;DHT22;6651;53.200;10.432;2023-08-01T03:05:45;16.70;99.90
13172;DHT22;6651;53.200;10.432;2023-08-01T03:08:11;16.80;99.90
13172;DHT22;6651;53.200;10.432;2023-08-01T03:10:36;16.70;99.90
13172;DHT22;6651;53.200;10.432;2023-08-01T03:13:02;16.70;99.90
13172;DHT22;6651;53.200;10.432;2023-08-01T03:15:28;16.70;99.90
13172;DHT22;6651;53.200;10.432;2023-08-01T03:17:53;16.60;99.90
13172;DHT22;6651;53.200;10.432;2023-08-01T03:20:19;16.60;99.90
13172;DHT22;6651;53.200;10.432;2023-08-01T03:22:45;16.60;99.90
13172;DHT22;6651;53.200;10.432;2023-08-01T03:25:11;16.60;99.90
13172;DHT22;6651;53.200;10.432;2023-08-01T03:27:36;16.60;99.90
13172;DHT22;6651;53.200;10.432;2023-08-01T03:30:02;16.60;99.90
13172;DHT22;6651;53.200;10.432;2023-08-01T03:32:30;16.60;99.90
13172;DHT22;6651;53.200;10.432;2023-08-01T03:34:55;16.60;99.90
13172;DHT22;6651;53.200;10.432;2023-08-01T03:37:21;16.60;99.90
13172;DHT22;6651;53.200;10.432;2023-08-01T03:39:47;16.60;99.90
13172;DHT22;6651;53.200;10.432;2023-08-01T03:42:12;16.50;99.90
13172;DHT22;6651;53.200;10.432;2023-08-01T03:44:38;16.50;99.90
13172;DHT22;6651;53.200;10.432;2023-08-01T03:47:04;16.50;99.90
13172;DHT22;6651;53.200;10.432;2023-08-01T03:49:30;16.50;99.90
13172;DHT22;6651;53.200;10.432;2023-08-01T03:51:55;16.50;99.90
13172;DHT22;6651;53.200;10.432;2023-08-01T03:54:21;16.50;99.90
13172;DHT22;6651;53.200;10.432;2023-08-01T03:56:46;16.60;99.90
13172;DHT22;6651;53.200;10.432;2023-08-01T03:59:13;16.50;99.90
13172;DHT22;6651;53.200;10.432;2023-08-01T04:01:40;16.50;99.90
13172;DHT22;6651;53.200;10.432;2023-08-01T04:04:07;16.50;99.90
13172;DHT22;6651;53.200;10.432;2023-08-01T04:06:33;16.50;99.90
13172;DHT22;6651;53.200;10.432;2023-08-01T04:08:58;16.50;99.90
13172;DHT22;6651;53.200;10.432;2023-08-01T04:11:25;16.50;99.90
13172;DHT22;6651;53.200;10.432;2023-08-01T04:13:51;16.50;99.90
13172;DHT22;6651;53.200;10.432;2023-08-01T04:16:17;16.50;99.90
13172;DHT22;6651;53.200;10.432;2023-08-01T04:18:43;16.50;99.90
13172;DHT22;6651;53.200;10.432;2023-08-01T04:21:08;16.50;99.90
13172;DHT22;6651;53.200;10.432;2023-08-01T04:23:34;16.60;99.90
13172;DHT22;6651;53.200;10.432;2023-08-01T04:26:00;16.50;99.90
13172;DHT22;6651;53.200;10.432;2023-08-01T04:28:26;16.60;99.90
13172;DHT22;6651;53.200;10.432;2023-08-01T04:30:52;16.50;99.90
13172;DHT22;6651;53.200;10.432;2023-08-01T04:33:18;16.50;99.90
13172;DHT22;6651;53.200;10.432;2023-08-01T04:35:44;16.50;99.90
13172;DHT22;6651;53.200;10.432;2023-08-01T04:38:10;16.50;99.90
13172;DHT22;6651;53.200;10.432;2023-08-01T04:40:38;16.50;99.90
13172;DHT22;6651;53.200;10.432;2023-08-01T04:43:03;16.50;99.90
13172;DHT22;6651;53.200;10.432;2023-08-01T04:45:29;16.60;99.90
13172;DHT22;6651;53.200;10.432;2023-08-01T04:47:55;16.50;99.90
13172;DHT22;6651;53.200;10.432;2023-08-01T04:50:20;16.50;99.90
13172;DHT22;6651;53.200;10.432;2023-08-01T04:52:46;16.50;99.90
13172;DHT22;6651;53.200;10.432;2023-08-01T04:55:11;16.50;99.90
13172;DHT22;6651;53.200;10.432;2023-08-01T04:57:37;16.50;99.90
13172;DHT22;6651;53.200;10.432;2023-08-01T05:00:04;16.50;99.90
13172;DHT22;6651;53.200;10.432;2023-08-01T05:02:30;16.60;99.90
13172;DHT22;6651;53.200;10.432;2023-08-01T05:04:55;16.60;99.90
13172;DHT22;6651;53.200;10.432;2023-08-01T05:07:21;16.60;99.90
13172;DHT22;6651;53.200;10.432;2023-08-01T05:09:46;16.60;99.90
13172;DHT22;6651;53.200;10.432;2023-08-01T05:12:12;16.50;99.90
13172;DHT22;6651;53.200;10.432;2023-08-01T05:14:38;16.50;99.90
13172;DHT22;6651;53.200;10.432;2023-08-01T05:17:04;16.50;99.90
13172;DHT22;6651;53.200;10.432;2023-08-01T05:19:29;16.50;99.90
13172;DHT22;6651;53.200;10.432;2023-08-01T05:21:55;16.50;99.90
13172;DHT22;6651;53.200;10.432;2023-08-01T05:24:21;16.60;99.90
13172;DHT22;6651;53.200;10.432;2023-08-01T05:26:47;16.60;99.90
13172;DHT22;6651;53.200;10.432;2023-08-01T05:29:13;16.60;99.90
13172;DHT22;6651;53.200;10.432;2023-08-01T05:31:38;16.70;99.90
13172;DHT22;6651;53.200;10.432;2023-08-01T05:34:04;16.70;99.90
13172;DHT22;6651;53.200;10.432;2023-08-01T05:36:30;16.70;99.90
13172;DHT22;6651;53.200;10.432;2023-08-01T05:38:56;16.70;99.90
13172;DHT22;6651;53.200;10.432;2023-08-01T05:41:22;16.70;99.90
13172;DHT22;6651;53.200;10.432;2023-08-01T05:43:48;16.80;99.90
13172;DHT22;6651;53.200;10.432;2023-08-01T05:46:14;16.80;99.90
13172;DHT22;6651;53.200;10.432;2023-08-01T05:48:40;16.80;99.90
13172;DHT22;6651;53.200;10.432;2023-08-01T05:51:06;16.80;99.90
13172;DHT22;6651;53.200;10.432;2023-08-01T05:53:32;16.90;99.90
13172;DHT22;6651;53.200;10.432;2023-08-01T05:55:57;16.90;99.90
13172;DHT22;6651;53.200;10.432;2023-08-01T05:58:23;16.90;99.90
13172;DHT22;6651;53.200;10.432;2023-08-01T06:00:49;16.90;99.90
13172;DHT22;6651;53.200;10.432;2023-08-01T06:03:15;17.00;99.90
13172;DHT22;6651;53.200;10.432;2023-08-01T06:05:41;17.00;99.90
13172;DHT22;6651;53.200;10.432;2023-08-01T06:08:07;17.00;99.90
13172;DHT22;6651;53.200;10.432;2023-08-01T06:10:34;17.00;99.90
13172;DHT22;6651;53.200;10.432;2023-08-01T06:13:00;17.00;99.90
13172;DHT22;6651;53.200;10.432;2023-08-01T06:15:25;17.10;99.90
13172;DHT22;6651;53.200;10.432;2023-08-01T06:17:51;17.20;99.90
13172;DHT22;6651;53.200;10.432;2023-08-01T06:20:17;17.20;99.90
13172;DHT22;6651;53.200;10.432;2023-08-01T06:22:42;17.20;99.90
13172;DHT22;6651;53.200;10.432;2023-08-01T06:25:08;17.20;99.90
13172;DHT22;6651;53.200;10.432;2023-08-01T06:27:34;17.20;99.90
13172;DHT22;6651;53.200;10.432;2023-08-01T06:30:00;17.20;99.90
13172;DHT22;6651;53.200;10.432;2023-08-01T06:32:26;17.20;99.90
13172;DHT22;6651;53.200;10.432;2023-08-01T06:34:51;17.20;99.90
13172;DHT22;6651;53.200;10.432;2023-08-01T06:37:17;17.30;99.90
13172;DHT22;6651;53.200;10.432;2023-08-01T06:39:43;17.30;99.90
13172;DHT22;6651;53.200;10.432;2023-08-01T06:42:09;17.30;99.90
13172;DHT22;6651;53.200;10.432;2023-08-01T06:44:34;17.40;99.90
13172;DHT22;6651;53.200;10.432;2023-08-01T06:47:00;17.40;99.90
13172;DHT22;6651;53.200;10.432;2023-08-01T06:49:26;17.30;99.90
13172;DHT22;6651;53.200;10.432;2023-08-01T06:51:51;17.30;99.90
13172;DHT22;6651;53.200;10.432;2023-08-01T06:54:17;17.40;99.90
13172;DHT22;6651;53.200;10.432;2023-08-01T06:56:43;17.40;99.90
13172;DHT22;6651;53.200;10.432;2023-08-01T06:59:13;17.40;99.90
13172;DHT22;6651;53.200;10.432;2023-08-01T07:01:40;17.50;99.90
13172;DHT22;6651;53.200;10.432;2023-08-01T07:04:11;17.50;99.90
13172;DHT22;6651;53.200;10.432;2023-08-01T07:06:37;17.50;99.90
13172;DHT22;6651;53.200;10.432;2023-08-01T07:09:03;17.50;99.90
13172;DHT22;6651;53.200;10.432;2023-08-01T07:11:28;17.50;99.90
13172;DHT22;6651;53.200;10.432;2023-08-01T07:13:54;17.60;99.90
13172;DHT22;6651;53.200;10.432;2023-08-01T07:16:20;17.60;99.90
13172;DHT22;6651;53.200;10.432;2023-08-01T07:18:45;17.60;99.90
13172;DHT22;6651;53.200;10.432;2023-08-01T07:21:11;17.70;99.90
13172;DHT22;6651;53.200;10.432;2023-08-01T07:23:37;17.60;99.90
13172;DHT22;6651;53.200;10.432;2023-08-01T07:26:03;17.60;99.90
13172;DHT22;6651;53.200;10.432;2023-08-01T07:28:29;17.60;99.90
13172;DHT22;6651;53.200;10.432;2023-08-01T07:31:02;17.50;99.90
13172;DHT22;6651;53.200;10.432;2023-08-01T07:33:28;17.40;99.90
13172;DHT22;6651;53.200;10.432;2023-08-01T07:35:54;17.40;99.90
13172;DHT22;6651;53.200;10.432;2023-08-01T07:38:20;17.30;99.90
13172;DHT22;6651;53.200;10.432;2023-08-01T07:40:46;17.20;99.90
13172;DHT22;6651;53.200;10.432;2023-08-01T07:43:11;17.10;99.90
13172;DHT22;6651;53.200;10.432;2023-08-01T07:45:38;17.10;99.90
13172;DHT22;6651;53.200;10.432;2023-08-01T07:48:04;17.10;99.90
13172;DHT22;6651;53.200;10.432;2023-08-01T07:50:30;17.10;99.90
13172;DHT22;6651;53.200;10.432;2023-08-01T07:52:55;17.20;99.90
13172;DHT22;6651;53.200;10.432;2023-08-01T07:55:21;17.30;99.90
13172;DHT22;6651;53.200;10.432;2023-08-01T07:57:50;17.30;99.90
13172;DHT22;6651;53.200;10.432;2023-08-01T08:00:16;17.40;99.90
13172;DHT22;6651;53.200;10.432;2023-08-01T08:02:42;17.30;99.90
13172;DHT22;6651;53.200;10.432;2023-08-01T08:05:09;17.20;99.90
13172;DHT22;6651;53.200;10.432;2023-08-01T08:07:36;17.20;99.90
13172;DHT22;6651;53.200;10.432;2023-08-01T08:10:02;17.10;99.90
13172;DHT22;6651;53.200;10.432;2023-08-01T08:12:28;17.10;99.90
13172;DHT22;6651;53.200;10.432;2023-08-01T08:14:54;17.20;99.90
13172;DHT22;6651;53.200;10.432;2023-08-01T08:17:19;17.30;99.90
13172;DHT22;6651;53.200;10.432;2023-08-01T08:19:45;17.30;99.90
13172;DHT22;6651;53.200;10.432;2023-08-01T08:22:11;17.40;99.90
13172;DHT22;6651;53.200;10.432;2023-08-01T08:24:37;17.40;99.90
13172;DHT22;6651;53.200;10.432;2023-08-01T08:27:03;17.30;99.90
13172;DHT22;6651;53.200;10.432;2023-08-01T08:29:30;17.30;99.90
13172;DHT22;6651;53.200;10.432;2023-08-01T08:31:55;17.30;99.90
13172;DHT22;6651;53.200;10.432;2023-08-01T08:34:21;17.40;99.90
13172;DHT22;6651;53.200;10.432;2023-08-01T08:36:47;17.50;99.90
13172;DHT22;6651;53.200;10.432;2023-08-01T08:39:12;17.60;99.90
13172;DHT22;6651;53.200;10.432;2023-08-01T08:41:50;17.90;99.90
13172;DHT22;6651;53.200;10.432;2023-08-01T08:44:20;18.00;99.90
13172;DHT22;6651;53.200;10.432;2023-08-01T08:46:52;18.30;99.90
13172;DHT22;6651;53.200;10.432;2023-08-01T08:49:22;18.50;99.90
13172;DHT22;6651;53.200;10.432;2023-08-01T08:51:48;18.70;99.90
13172;DHT22;6651;53.200;10.432;2023-08-01T08:54:16;18.90;99.90
13172;DHT22;6651;53.200;10.432;2023-08-01T08:56:42;19.20;99.90
13172;DHT22;6651;53.200;10.432;2023-08-01T08:59:08;19.30;99.90
13172;DHT22;6651;53.200;10.432;2023-08-01T09:01:38;19.50;99.90
13172;DHT22;6651;53.200;10.432;2023-08-01T09:04:05;19.60;99.90
13172;DHT22;6651;53.200;10.432;2023-08-01T09:06:45;19.50;99.90
13172;DHT22;6651;53.200;10.432;2023-08-01T09:09:13;19.50;99.90
13172;DHT22;6651;53.200;10.432;2023-08-01T09:11:49;19.40;99.90
13172;DHT22;6651;53.200;10.432;2023-08-01T09:14:16;19.40;99.90
13172;DHT22;6651;53.200;10.432;2023-08-01T09:16:42;19.30;99.90
13172;DHT22;6651;53.200;10.432;2023-08-01T09:19:09;19.50;99.90
13172;DHT22;6651;53.200;10.432;2023-08-01T09:21:36;19.70;99.90
13172;DHT22;6651;53.200;10.432;2023-08-01T09:24:10;19.70;99.90
13172;DHT22;6651;53.200;10.432;2023-08-01T09:26:37;19.50;99.90
13172;DHT22;6651;53.200;10.432;2023-08-01T09:29:03;19.40;99.90
13172;DHT22;6651;53.200;10.432;2023-08-01T09:31:40;19.30;99.90
13172;DHT22;6651;53.200;10.432;2023-08-01T09:34:21;19.20;99.90
13172;DHT22;6651;53.200;10.432;2023-08-01T09:36:46;19.20;99.90
13172;DHT22;6651;53.200;10.432;2023-08-01T09:39:20;19.50;99.90
13172;DHT22;6651;53.200;10.432;2023-08-01T09:41:58;19.70;99.90
13172;DHT22;6651;53.200;10.432;2023-08-01T09:44:25;19.60;99.90
13172;DHT22;6651;53.200;10.432;2023-08-01T09:47:04;19.60;99.90
13172;DHT22;6651;53.200;10.432;2023-08-01T09:49:32;19.90;99.90
13172;DHT22;6651;53.200;10.432;2023-08-01T09:51:59;20.40;99.90
13172;DHT22;6651;53.200;10.432;2023-08-01T09:54:25;20.80;99.90
13172;DHT22;6651;53.200;10.432;2023-08-01T09:56:52;21.00;99.90
13172;DHT22;6651;53.200;10.432;2023-08-01T09:59:23;21.30;99.90
13172;DHT22;6651;53.200;10.432;2023-08-01T10:01:51;21.40;99.90
13172;DHT22;6651;53.200;10.432;2023-08-01T10:04:37;21.40;99.90
13172;DHT22;6651;53.200;10.432;2023-08-01T10:07:08;21.60;99.90
13172;DHT22;6651;53.200;10.432;2023-08-01T10:09:37;21.10;99.90
13172;DHT22;6651;53.200;10.432;2023-08-01T10:12:05;21.10;99.90
13172;DHT22;6651;53.200;10.432;2023-08-01T10:14:35;20.80;99.90
13172;DHT22;6651;53.200;10.432;2023-08-01T10:17:02;20.60;99.90
13172;DHT22;6651;53.200;10.432;2023-08-01T10:19:29;20.70;99.90
13172;DHT22;6651;53.200;10.432;2023-08-01T10:21:57;20.80;99.90
13172;DHT22;6651;53.200;10.432;2023-08-01T10:24:24;20.90;99.90
13172;DHT22;6651;53.200;10.432;2023-08-01T10:26:50;21.20;99.90
13172;DHT22;6651;53.200;10.432;2023-08-01T10:29:15;21.70;99.90
13172;DHT22;6651;53.200;10.432;2023-08-01T10:31:54;21.80;99.90
13172;DHT22;6651;53.200;10.432;2023-08-01T10:34:20;21.80;99.90
13172;DHT22;6651;53.200;10.432;2023-08-01T10:36:59;21.90;99.90
13172;DHT22;6651;53.200;10.432;2023-08-01T10:39:26;21.70;99.90
13172;DHT22;6651;53.200;10.432;2023-08-01T10:42:03;21.50;99.90
13172;DHT22;6651;53.200;10.432;2023-08-01T10:44:30;21.20;99.90
13172;DHT22;6651;53.200;10.432;2023-08-01T10:47:04;21.10;99.90
13172;DHT22;6651;53.200;10.432;2023-08-01T10:52:24;21.20;99.90
13172;DHT22;6651;53.200;10.432;2023-08-01T10:55:10;21.20;99.90
13172;DHT22;6651;53.200;10.432;2023-08-01T10:57:39;21.60;99.90
13172;DHT22;6651;53.200;10.432;2023-08-01T11:00:15;21.80;99.90
13172;DHT22;6651;53.200;10.432;2023-08-01T11:02:49;22.20;99.90
13172;DHT22;6651;53.200;10.432;2023-08-01T11:05:15;22.50;99.90
13172;DHT22;6651;53.200;10.432;2023-08-01T11:07:41;22.70;99.90
13172;DHT22;6651;53.200;10.432;2023-08-01T11:10:12;23.00;99.90
13172;DHT22;6651;53.200;10.432;2023-08-01T11:12:39;23.10;99.90
13172;DHT22;6651;53.200;10.432;2023-08-01T11:15:07;23.30;99.90
13172;DHT22;6651;53.200;10.432;2023-08-01T11:17:35;23.20;99.90
13172;DHT22;6651;53.200;10.432;2023-08-01T11:20:03;23.00;99.90
13172;DHT22;6651;53.200;10.432;2023-08-01T11:22:30;22.70;99.90
13172;DHT22;6651;53.200;10.432;2023-08-01T11:24:55;22.50;99.90
13172;DHT22;6651;53.200;10.432;2023-08-01T11:27:21;22.10;99.90
13172;DHT22;6651;53.200;10.432;2023-08-01T11:29:47;22.00;99.90
13172;DHT22;6651;53.200;10.432;2023-08-01T11:32:13;22.20;99.90
13172;DHT22;6651;53.200;10.432;2023-08-01T11:34:42;22.20;99.90
13172;DHT22;6651;53.200;10.432;2023-08-01T11:37:12;22.30;99.90
13172;DHT22;6651;53.200;10.432;2023-08-01T11:39:38;22.60;99.90
13172;DHT22;6651;53.200;10.432;2023-08-01T11:42:04;22.90;99.90
13172;DHT22;6651;53.200;10.432;2023-08-01T11:44:30;23.20;99.90
13172;DHT22;6651;53.200;10.432;2023-08-01T11:46:56;23.00;99.90
13172;DHT22;6651;53.200;10.432;2023-08-01T11:49:22;22.50;99.90
13172;DHT22;6651;53.200;10.432;2023-08-01T11:51:48;21.90;99.90
13172;DHT22;6651;53.200;10.432;2023-08-01T11:54:14;21.50;99.90
13172;DHT22;6651;53.200;10.432;2023-08-01T11:56:41;21.40;99.90
13172;DHT22;6651;53.200;10.432;2023-08-01T11:59:17;21.10;99.90
13172;DHT22;6651;53.200;10.432;2023-08-01T12:01:47;20.90;99.90
13172;DHT22;6651;53.200;10.432;2023-08-01T12:04:27;20.60;99.90
13172;DHT22;6651;53.200;10.432;2023-08-01T12:06:53;20.30;99.90
13172;DHT22;6651;53.200;10.432;2023-08-01T12:09:19;20.00;99.90
13172;DHT22;6651;53.200;10.432;2023-08-01T12:11:46;19.70;99.90
13172;DHT22;6651;53.200;10.432;2023-08-01T12:14:15;19.30;99.90
13172;DHT22;6651;53.200;10.432;2023-08-01T12:16:42;19.10;99.90
13172;DHT22;6651;53.200;10.432;2023-08-01T12:19:17;19.00;99.90
13172;DHT22;6651;53.200;10.432;2023-08-01T12:21:44;19.20;99.90
13172;DHT22;6651;53.200;10.432;2023-08-01T12:24:10;19.50;99.90
13172;DHT22;6651;53.200;10.432;2023-08-01T12:26:35;19.70;99.90
13172;DHT22;6651;53.200;10.432;2023-08-01T12:29:01;20.00;99.90
13172;DHT22;6651;53.200;10.432;2023-08-01T12:31:28;20.20;99.90
13172;DHT22;6651;53.200;10.432;2023-08-01T12:33:54;20.60;99.90
13172;DHT22;6651;53.200;10.432;2023-08-01T12:36:20;21.00;99.90
13172;DHT22;6651;53.200;10.432;2023-08-01T12:38:46;21.10;99.90
13172;DHT22;6651;53.200;10.432;2023-08-01T12:41:11;21.20;99.90
13172;DHT22;6651;53.200;10.432;2023-08-01T12:43:37;21.20;99.90
13172;DHT22;6651;53.200;10.432;2023-08-01T12:46:03;21.00;99.90
13172;DHT22;6651;53.200;10.432;2023-08-01T12:48:29;20.90;99.90
13172;DHT22;6651;53.200;10.432;2023-08-01T12:50:55;20.80;99.90
13172;DHT22;6651;53.200;10.432;2023-08-01T12:53:21;20.70;99.90
13172;DHT22;6651;53.200;10.432;2023-08-01T12:55:48;20.50;99.90
13172;DHT22;6651;53.200;10.432;2023-08-01T12:58:15;20.40;99.90
13172;DHT22;6651;53.200;10.432;2023-08-01T13:00:42;20.40;99.90
13172;DHT22;6651;53.200;10.432;2023-08-01T13:03:08;20.50;99.90
13172;DHT22;6651;53.200;10.432;2023-08-01T13:05:38;20.60;99.90
13172;DHT22;6651;53.200;10.432;2023-08-01T13:08:04;20.90;99.90
13172;DHT22;6651;53.200;10.432;2023-08-01T13:10:31;21.00;99.90
13172;DHT22;6651;53.200;10.432;2023-08-01T13:12:57;20.80;99.90
13172;DHT22;6651;53.200;10.432;2023-08-01T13:15:23;20.60;99.90
13172;DHT22;6651;53.200;10.432;2023-08-01T13:17:49;20.50;99.90
13172;DHT22;6651;53.200;10.432;2023-08-01T13:20:16;20.30;99.90
13172;DHT22;6651;53.200;10.432;2023-08-01T13:22:42;20.20;99.90
13172;DHT22;6651;53.200;10.432;2023-08-01T13:25:08;20.10;99.90
13172;DHT22;6651;53.200;10.432;2023-08-01T13:27:35;20.10;99.90
13172;DHT22;6651;53.200;10.432;2023-08-01T13:30:02;20.00;99.90
13172;DHT22;6651;53.200;10.432;2023-08-01T13:32:28;19.90;99.90
13172;DHT22;6651;53.200;10.432;2023-08-01T13:34:53;20.10;99.90
13172;DHT22;6651;53.200;10.432;2023-08-01T13:37:19;20.40;99.90
13172;DHT22;6651;53.200;10.432;2023-08-01T13:39:45;20.70;99.90
13172;DHT22;6651;53.200;10.432;2023-08-01T13:42:12;20.70;99.90
13172;DHT22;6651;53.200;10.432;2023-08-01T13:44:37;20.70;99.90
13172;DHT22;6651;53.200;10.432;2023-08-01T13:47:03;20.60;99.90
13172;DHT22;6651;53.200;10.432;2023-08-01T13:49:30;20.50;99.90
13172;DHT22;6651;53.200;10.432;2023-08-01T13:51:55;20.40;99.90
13172;DHT22;6651;53.200;10.432;2023-08-01T13:54:21;20.40;99.90
13172;DHT22;6651;53.200;10.432;2023-08-01T13:56:47;20.10;99.90
13172;DHT22;6651;53.200;10.432;2023-08-01T13:59:13;20.10;99.90
13172;DHT22;6651;53.200;10.432;2023-08-01T14:01:39;19.80;99.90
13172;DHT22;6651;53.200;10.432;2023-08-01T14:04:05;19.70;99.90
13172;DHT22;6651;53.200;10.432;2023-08-01T14:06:30;19.60;99.90
13172;DHT22;6651;53.200;10.432;2023-08-01T14:08:56;19.50;99.90
13172;DHT22;6651;53.200;10.432;2023-08-01T14:11:22;19.50;99.90
13172;DHT22;6651;53.200;10.432;2023-08-01T14:13:49;19.60;99.90
13172;DHT22;6651;53.200;10.432;2023-08-01T14:16:14;19.50;99.90
13172;DHT22;6651;53.200;10.432;2023-08-01T14:18:42;19.40;99.90
13172;DHT22;6651;53.200;10.432;2023-08-01T14:21:08;19.20;99.90
13172;DHT22;6651;53.200;10.432;2023-08-01T14:23:33;19.10;99.90
13172;DHT22;6651;53.200;10.432;2023-08-01T14:25:59;19.00;99.90
13172;DHT22;6651;53.200;10.432;2023-08-01T14:28:25;18.80;99.90
13172;DHT22;6651;53.200;10.432;2023-08-01T14:30:50;18.80;99.90
13172;DHT22;6651;53.200;10.432;2023-08-01T14:33:16;18.90;99.90
13172;DHT22;6651;53.200;10.432;2023-08-01T14:35:42;18.80;99.90
13172;DHT22;6651;53.200;10.432;2023-08-01T14:38:08;18.90;99.90
13172;DHT22;6651;53.200;10.432;2023-08-01T14:40:35;18.90;99.90
13172;DHT22;6651;53.200;10.432;2023-08-01T14:43:01;18.90;99.90
13172;DHT22;6651;53.200;10.432;2023-08-01T14:45:27;18.90;99.90
13172;DHT22;6651;53.200;10.432;2023-08-01T14:47:53;19.00;99.90
13172;DHT22;6651;53.200;10.432;2023-08-01T14:50:18;19.00;99.90
13172;DHT22;6651;53.200;10.432;2023-08-01T14:52:44;19.10;99.90
13172;DHT22;6651;53.200;10.432;2023-08-01T14:55:10;19.00;99.90
13172;DHT22;6651;53.200;10.432;2023-08-01T14:57:35;19.00;99.90
13172;DHT22;6651;53.200;10.432;2023-08-01T15:00:02;19.00;99.90
13172;DHT22;6651;53.200;10.432;2023-08-01T15:02:28;18.90;99.90
13172;DHT22;6651;53.200;10.432;2023-08-01T15:04:55;18.80;99.90
13172;DHT22;6651;53.200;10.432;2023-08-01T15:07:22;18.70;99.90
13172;DHT22;6651;53.200;10.432;2023-08-01T15:09:48;18.60;99.90
13172;DHT22;6651;53.200;10.432;2023-08-01T15:12:16;18.60;99.90
13172;DHT22;6651;53.200;10.432;2023-08-01T15:14:41;18.50;99.90
13172;DHT22;6651;53.200;10.432;2023-08-01T15:17:07;18.50;99.90
13172;DHT22;6651;53.200;10.432;2023-08-01T15:19:35;18.50;99.90
13172;DHT22;6651;53.200;10.432;2023-08-01T15:22:01;18.50;99.90
13172;DHT22;6651;53.200;10.432;2023-08-01T15:24:29;18.30;99.90
13172;DHT22;6651;53.200;10.432;2023-08-01T15:26:55;18.40;99.90
13172;DHT22;6651;53.200;10.432;2023-08-01T15:29:21;18.50;99.90